createdAt,value
2017-04-17T00:00:04.633Z,68.02
2017-04-17T00:00:14.732Z,68.02
2017-04-17T00:00:24.822Z,68.02
2017-04-17T00:00:34.913Z,68.02
2017-04-17T00:00:44.996Z,68.02
2017-04-17T00:00:54.820Z,68.02
2017-04-17T00:01:04.907Z,68.02
2017-04-17T00:01:14.711Z,68.02
2017-04-17T00:01:24.811Z,68.02
2017-04-17T00:01:34.901Z,68.02
2017-04-17T00:01:44.989Z,68.02
2017-04-17T00:01:54.787Z,68.02
2017-04-17T00:02:05.011Z,68.02
2017-04-17T00:02:14.817Z,68.02
2017-04-17T00:02:24.907Z,68.02
2017-04-17T00:02:34.998Z,68.02
2017-04-17T00:02:45.093Z,68.02
2017-04-17T00:02:55.182Z,68.02
2017-04-17T00:03:05.273Z,68.02
2017-04-17T00:03:15.090Z,68.02
2017-04-17T00:03:25.180Z,68.02
2017-04-17T00:03:34.703Z,68.02
2017-04-17T00:03:44.811Z,68.02
2017-04-17T00:03:54.902Z,68.02
2017-04-17T00:04:04.998Z,68.02
2017-04-17T00:04:15.097Z,68.02
2017-04-17T00:04:25.199Z,68.02
2017-04-17T00:04:35.000Z,68.02
2017-04-17T00:04:45.095Z,68.02
2017-04-17T00:04:55.180Z,68.02
2017-04-17T00:05:05.269Z,68.02
2017-04-17T00:05:14.783Z,68.02
2017-04-17T00:05:24.725Z,68.02
2017-04-17T00:05:34.522Z,68.02
2017-04-17T00:05:44.610Z,68.02
2017-04-17T00:05:54.703Z,68.02
2017-04-17T00:06:04.794Z,68.02
2017-04-17T00:06:14.890Z,68.02
2017-04-17T00:06:24.982Z,68.02
2017-04-17T00:06:35.066Z,68.02
2017-04-17T00:06:45.150Z,68.02
2017-04-17T00:06:54.945Z,68.12
2017-04-17T00:07:04.746Z,68.02
2017-04-17T00:07:14.842Z,68.02
2017-04-17T00:07:24.931Z,68.02
2017-04-17T00:07:35.051Z,68.12
2017-04-17T00:07:45.145Z,68.12
2017-04-17T00:07:54.949Z,68.12
2017-04-17T00:08:04.753Z,68.12
2017-04-17T00:08:14.843Z,68.12
2017-04-17T00:08:24.648Z,68.12
2017-04-17T00:08:34.732Z,68.12
2017-04-17T00:08:44.965Z,68.12
2017-04-17T00:08:55.056Z,68.12
2017-04-17T00:09:05.150Z,68.12
2017-04-17T00:09:15.239Z,68.12
2017-04-17T00:09:24.755Z,68.12
2017-04-17T00:09:34.846Z,68.12
2017-04-17T00:09:44.934Z,68.12
2017-04-17T00:09:55.061Z,68.12
2017-04-17T00:10:05.155Z,68.12
2017-04-17T00:10:14.675Z,68.12
2017-04-17T00:10:24.781Z,68.12
2017-04-17T00:10:34.865Z,68.12
2017-04-17T00:10:44.954Z,68.12
2017-04-17T00:10:55.040Z,68.12
2017-04-17T00:11:05.164Z,68.12
2017-04-17T00:11:15.252Z,68.12
2017-04-17T00:11:25.341Z,68.12
2017-04-17T00:11:35.430Z,68.21
2017-04-17T00:11:45.515Z,68.12
2017-04-17T00:11:55.604Z,68.21
2017-04-17T00:12:05.685Z,68.21
2017-04-17T00:12:15.247Z,68.21
2017-04-17T00:12:25.333Z,68.21
2017-04-17T00:12:35.427Z,68.21
2017-04-17T00:12:44.951Z,68.21
2017-04-17T00:12:55.045Z,68.21
2017-04-17T00:13:05.136Z,68.21
2017-04-17T00:13:15.575Z,68.21
2017-04-17T00:13:25.663Z,68.21
2017-04-17T00:13:35.752Z,68.21
2017-04-17T00:13:45.842Z,68.21
2017-04-17T00:13:55.644Z,68.21
2017-04-17T00:14:05.739Z,68.21
2017-04-17T00:14:15.543Z,68.21
2017-04-17T00:14:25.647Z,68.21
2017-04-17T00:14:35.741Z,68.21
2017-04-17T00:14:45.832Z,68.21
2017-04-17T00:14:55.927Z,68.21
2017-04-17T00:15:05.737Z,68.31
2017-04-17T00:15:15.835Z,68.31
2017-04-17T00:15:25.929Z,68.31
2017-04-17T00:15:36.036Z,68.31
2017-04-17T00:15:46.132Z,68.31
2017-04-17T00:15:56.223Z,68.31
2017-04-17T00:16:06.322Z,68.31
2017-04-17T00:16:16.124Z,68.31
2017-04-17T00:16:26.214Z,68.31
2017-04-17T00:16:36.437Z,68.31
2017-04-17T00:16:46.530Z,68.4
2017-04-17T00:16:56.625Z,68.4
2017-04-17T00:17:06.430Z,68.4
2017-04-17T00:17:16.518Z,68.4
2017-04-17T00:17:26.604Z,68.4
2017-04-17T00:17:36.405Z,68.4
2017-04-17T00:17:46.535Z,68.4
2017-04-17T00:17:56.625Z,68.4
2017-04-17T00:18:06.719Z,68.4
2017-04-17T00:18:16.805Z,68.4
2017-04-17T00:18:26.895Z,68.4
2017-04-17T00:18:36.701Z,68.4
2017-04-17T00:18:46.804Z,68.4
2017-04-17T00:18:56.892Z,68.5
2017-04-17T00:19:06.985Z,68.5
2017-04-17T00:19:17.075Z,68.5
2017-04-17T00:19:27.166Z,68.5
2017-04-17T00:19:37.252Z,68.5
2017-04-17T00:19:47.334Z,68.5
2017-04-17T00:19:57.430Z,68.5
2017-04-17T00:20:07.522Z,68.5
2017-04-17T00:20:17.613Z,68.5
2017-04-17T00:20:27.415Z,68.5
2017-04-17T00:20:37.217Z,68.5
2017-04-17T00:20:47.306Z,68.5
2017-04-17T00:20:57.414Z,68.5
2017-04-17T00:21:07.650Z,68.5
2017-04-17T00:21:17.772Z,68.5
2017-04-17T00:21:27.865Z,68.5
2017-04-17T00:21:37.953Z,68.5
2017-04-17T00:21:48.047Z,68.59
2017-04-17T00:21:57.846Z,68.5
2017-04-17T00:22:07.936Z,68.59
2017-04-17T00:22:18.119Z,68.59
2017-04-17T00:22:28.209Z,68.59
2017-04-17T00:22:38.292Z,68.59
2017-04-17T00:22:48.380Z,68.59
2017-04-17T00:22:58.472Z,68.59
2017-04-17T00:23:08.583Z,68.59
2017-04-17T00:23:18.671Z,68.59
2017-04-17T00:23:28.771Z,68.59
2017-04-17T00:23:38.577Z,68.59
2017-04-17T00:23:48.383Z,68.59
2017-04-17T00:23:58.475Z,68.59
2017-04-17T00:24:08.560Z,68.59
2017-04-17T00:24:18.365Z,68.59
2017-04-17T00:24:28.470Z,68.59
2017-04-17T00:24:38.284Z,68.59
2017-04-17T00:24:48.371Z,68.59
2017-04-17T00:24:58.176Z,68.59
2017-04-17T00:25:07.980Z,68.59
2017-04-17T00:25:18.075Z,68.59
2017-04-17T00:25:28.163Z,68.59
2017-04-17T00:25:38.251Z,68.59
2017-04-17T00:25:48.341Z,68.59
2017-04-17T00:25:58.432Z,68.59
2017-04-17T00:26:08.517Z,68.59
2017-04-17T00:26:18.320Z,68.59
2017-04-17T00:26:28.412Z,68.59
2017-04-17T00:26:38.524Z,68.59
2017-04-17T00:26:48.620Z,68.68
2017-04-17T00:26:58.415Z,68.59
2017-04-17T00:27:08.512Z,68.68
2017-04-17T00:27:18.308Z,68.68
2017-04-17T00:27:28.398Z,68.68
2017-04-17T00:27:38.485Z,68.68
2017-04-17T00:27:48.574Z,68.68
2017-04-17T00:27:58.374Z,68.68
2017-04-17T00:28:08.467Z,68.68
2017-04-17T00:28:18.557Z,68.68
2017-04-17T00:28:28.647Z,68.68
2017-04-17T00:28:38.751Z,68.68
2017-04-17T00:28:48.840Z,68.68
2017-04-17T00:28:59.171Z,68.68
2017-04-17T00:29:09.258Z,68.68
2017-04-17T00:29:18.776Z,68.68
2017-04-17T00:29:28.868Z,68.68
2017-04-17T00:29:38.999Z,68.68
2017-04-17T00:29:49.086Z,68.68
2017-04-17T00:29:59.175Z,68.68
2017-04-17T00:30:09.394Z,68.68
2017-04-17T00:30:19.483Z,68.68
2017-04-17T00:30:29.285Z,68.68
2017-04-17T00:30:39.376Z,68.78
2017-04-17T00:30:49.466Z,68.78
2017-04-17T00:30:59.264Z,68.78
2017-04-17T00:31:09.353Z,68.78
2017-04-17T00:31:19.153Z,68.78
2017-04-17T00:31:29.241Z,68.78
2017-04-17T00:31:39.328Z,68.78
2017-04-17T00:31:49.440Z,68.78
2017-04-17T00:31:59.534Z,68.78
2017-04-17T00:32:09.623Z,68.78
2017-04-17T00:32:19.420Z,68.78
2017-04-17T00:32:29.715Z,68.78
2017-04-17T00:32:39.813Z,68.78
2017-04-17T00:32:49.903Z,68.78
2017-04-17T00:32:59.990Z,68.78
2017-04-17T00:33:09.798Z,68.78
2017-04-17T00:33:19.893Z,68.78
2017-04-17T00:33:29.987Z,68.78
2017-04-17T00:33:40.092Z,68.78
2017-04-17T00:33:50.181Z,68.78
2017-04-17T00:34:00.275Z,68.78
2017-04-17T00:34:10.069Z,68.78
2017-04-17T00:34:19.879Z,68.78
2017-04-17T00:34:29.973Z,68.87
2017-04-17T00:34:40.398Z,68.78
2017-04-17T00:34:50.489Z,68.87
2017-04-17T00:35:00.583Z,68.87
2017-04-17T00:35:09.808Z,68.87
2017-04-17T00:35:19.901Z,68.87
2017-04-17T00:35:29.988Z,68.87
2017-04-17T00:35:40.087Z,68.78
2017-04-17T00:35:50.125Z,68.87
2017-04-17T00:36:00.215Z,68.87
2017-04-17T00:36:09.728Z,68.87
2017-04-17T00:36:19.816Z,68.87
2017-04-17T00:36:29.902Z,68.87
2017-04-17T00:36:39.994Z,68.87
2017-04-17T00:36:50.080Z,68.87
2017-04-17T00:36:59.885Z,68.87
2017-04-17T00:37:09.684Z,68.87
2017-04-17T00:37:19.772Z,68.87
2017-04-17T00:37:29.853Z,68.87
2017-04-17T00:37:39.941Z,68.87
2017-04-17T00:37:50.032Z,68.87
2017-04-17T00:38:00.143Z,68.87
2017-04-17T00:38:09.959Z,68.87
2017-04-17T00:38:20.053Z,68.87
2017-04-17T00:38:29.856Z,68.87
2017-04-17T00:38:39.950Z,68.87
2017-04-17T00:38:50.041Z,68.87
2017-04-17T00:39:00.138Z,68.87
2017-04-17T00:39:10.409Z,68.87
2017-04-17T00:39:20.498Z,68.87
2017-04-17T00:39:30.591Z,68.87
2017-04-17T00:39:40.396Z,68.87
2017-04-17T00:39:50.491Z,68.87
2017-04-17T00:40:00.584Z,68.87
2017-04-17T00:40:10.385Z,68.97
2017-04-17T00:40:19.897Z,68.97
2017-04-17T00:40:29.699Z,68.97
2017-04-17T00:40:39.783Z,68.97
2017-04-17T00:40:49.870Z,68.97
2017-04-17T00:40:59.956Z,68.97
2017-04-17T00:41:10.047Z,68.97
2017-04-17T00:41:20.137Z,68.97
2017-04-17T00:41:30.231Z,68.97
2017-04-17T00:41:40.317Z,68.97
2017-04-17T00:41:50.404Z,68.97
2017-04-17T00:42:00.530Z,68.97
2017-04-17T00:42:10.612Z,68.97
2017-04-17T00:42:20.699Z,68.97
2017-04-17T00:42:30.790Z,68.97
2017-04-17T00:42:40.874Z,69.06
2017-04-17T00:42:50.996Z,69.06
2017-04-17T00:43:01.089Z,69.06
2017-04-17T00:43:11.184Z,69.06
2017-04-17T00:43:20.987Z,69.06
2017-04-17T00:43:30.797Z,69.06
2017-04-17T00:43:40.883Z,69.06
2017-04-17T00:43:50.697Z,69.06
2017-04-17T00:44:00.788Z,69.06
2017-04-17T00:44:10.874Z,69.16
2017-04-17T00:44:20.968Z,69.16
2017-04-17T00:44:31.057Z,69.16
2017-04-17T00:44:41.148Z,69.16
2017-04-17T00:44:50.950Z,69.16
2017-04-17T00:45:01.037Z,69.16
2017-04-17T00:45:10.552Z,69.16
2017-04-17T00:45:20.640Z,69.16
2017-04-17T00:45:30.726Z,69.16
2017-04-17T00:45:40.530Z,69.16
2017-04-17T00:45:50.616Z,69.16
2017-04-17T00:46:00.931Z,69.16
2017-04-17T00:46:11.018Z,69.16
2017-04-17T00:46:21.106Z,69.16
2017-04-17T00:46:31.196Z,69.16
2017-04-17T00:46:40.999Z,69.16
2017-04-17T00:46:51.079Z,69.16
2017-04-17T00:47:01.179Z,69.16
2017-04-17T00:47:11.281Z,69.16
2017-04-17T00:47:21.375Z,69.16
2017-04-17T00:47:31.468Z,69.16
2017-04-17T00:47:41.568Z,69.16
2017-04-17T00:47:51.671Z,69.16
2017-04-17T00:48:01.474Z,69.16
2017-04-17T00:48:11.633Z,69.16
2017-04-17T00:48:21.721Z,69.16
2017-04-17T00:48:31.812Z,69.16
2017-04-17T00:48:41.903Z,69.16
2017-04-17T00:48:51.992Z,69.16
2017-04-17T00:49:01.794Z,69.16
2017-04-17T00:49:11.892Z,69.16
2017-04-17T00:49:21.709Z,69.16
2017-04-17T00:49:31.800Z,69.16
2017-04-17T00:49:41.892Z,69.16
2017-04-17T00:49:51.979Z,69.16
2017-04-17T00:50:02.070Z,69.16
2017-04-17T00:50:12.159Z,69.16
2017-04-17T00:50:21.669Z,69.16
2017-04-17T00:50:31.790Z,69.16
2017-04-17T00:50:41.880Z,69.16
2017-04-17T00:50:51.968Z,69.16
2017-04-17T00:51:02.053Z,69.16
2017-04-17T00:51:11.856Z,69.16
2017-04-17T00:51:21.653Z,69.16
2017-04-17T00:51:31.741Z,69.16
2017-04-17T00:51:41.831Z,69.16
2017-04-17T00:51:51.944Z,69.16
2017-04-17T00:52:02.037Z,69.16
2017-04-17T00:52:12.134Z,69.16
2017-04-17T00:52:22.218Z,69.16
2017-04-17T00:52:32.308Z,69.16
2017-04-17T00:52:42.685Z,69.16
2017-04-17T00:52:52.779Z,69.16
2017-04-17T00:53:02.867Z,69.16
2017-04-17T00:53:12.665Z,69.16
2017-04-17T00:53:22.760Z,69.16
2017-04-17T00:53:32.846Z,69.16
2017-04-17T00:53:42.648Z,69.16
2017-04-17T00:53:53.477Z,69.25
2017-04-17T00:54:03.566Z,69.25
2017-04-17T00:54:13.368Z,69.25
2017-04-17T00:54:23.465Z,69.25
2017-04-17T00:54:33.557Z,69.25
2017-04-17T00:54:43.650Z,69.25
2017-04-17T00:54:53.741Z,69.25
2017-04-17T00:55:03.922Z,69.25
2017-04-17T00:55:14.012Z,69.25
2017-04-17T00:55:24.097Z,69.25
2017-04-17T00:55:34.184Z,69.25
2017-04-17T00:55:44.272Z,69.25
2017-04-17T00:55:54.366Z,69.25
2017-04-17T00:56:04.455Z,69.25
2017-04-17T00:56:14.260Z,69.25
2017-04-17T00:56:24.066Z,69.25
2017-04-17T00:56:34.152Z,69.25
2017-04-17T00:56:44.239Z,69.25
2017-04-17T00:56:54.328Z,69.25
2017-04-17T00:57:04.129Z,69.25
2017-04-17T00:57:14.222Z,69.25
2017-04-17T00:57:24.310Z,69.25
2017-04-17T00:57:34.398Z,69.25
2017-04-17T00:57:44.489Z,69.25
2017-04-17T00:57:54.587Z,69.25
2017-04-17T00:58:04.688Z,69.25
2017-04-17T00:58:14.786Z,69.25
2017-04-17T00:58:25.094Z,69.25
2017-04-17T00:58:35.189Z,69.25
2017-04-17T00:58:45.277Z,69.25
2017-04-17T00:58:55.372Z,69.25
2017-04-17T00:59:05.458Z,69.25
2017-04-17T00:59:15.262Z,69.25
2017-04-17T00:59:25.359Z,69.25
2017-04-17T00:59:35.458Z,69.25
2017-04-17T00:59:45.550Z,69.25
2017-04-17T00:59:55.352Z,69.25
2017-04-17T01:00:05.444Z,69.25
2017-04-17T01:00:15.531Z,69.25
2017-04-17T01:00:25.619Z,69.25
2017-04-17T01:00:35.712Z,69.25
2017-04-17T01:00:45.902Z,69.25
2017-04-17T01:00:55.707Z,69.25
2017-04-17T01:01:05.516Z,69.25
2017-04-17T01:01:15.603Z,69.25
2017-04-17T01:01:25.406Z,69.25
2017-04-17T01:01:35.492Z,69.25
2017-04-17T01:01:45.896Z,69.25
2017-04-17T01:01:55.697Z,69.35
2017-04-17T01:02:05.788Z,69.25
2017-04-17T01:02:15.588Z,69.35
2017-04-17T01:02:25.680Z,69.35
2017-04-17T01:02:35.776Z,69.25
2017-04-17T01:02:45.866Z,69.35
2017-04-17T01:02:55.962Z,69.35
2017-04-17T01:03:06.050Z,69.35
2017-04-17T01:03:15.565Z,69.35
2017-04-17T01:03:25.652Z,69.35
2017-04-17T01:03:35.750Z,69.35
2017-04-17T01:03:45.841Z,69.35
2017-04-17T01:03:55.652Z,69.35
2017-04-17T01:04:05.748Z,69.35
2017-04-17T01:04:15.556Z,69.35
2017-04-17T01:04:25.653Z,69.35
2017-04-17T01:04:35.741Z,69.35
2017-04-17T01:04:45.827Z,69.35
2017-04-17T01:04:55.343Z,69.35
2017-04-17T01:05:05.148Z,69.35
2017-04-17T01:05:14.957Z,69.35
2017-04-17T01:05:25.052Z,69.35
2017-04-17T01:05:35.143Z,69.35
2017-04-17T01:05:45.237Z,69.44
2017-04-17T01:05:55.332Z,69.44
2017-04-17T01:06:05.430Z,69.35
2017-04-17T01:06:15.451Z,69.35
2017-04-17T01:06:25.254Z,69.35
2017-04-17T01:06:35.342Z,69.35
2017-04-17T01:06:45.148Z,69.44
2017-04-17T01:06:55.242Z,69.35
2017-04-17T01:07:05.038Z,69.44
2017-04-17T01:07:15.138Z,69.44
2017-04-17T01:07:25.322Z,69.44
2017-04-17T01:07:35.413Z,69.44
2017-04-17T01:07:45.224Z,69.35
2017-04-17T01:07:55.318Z,69.44
2017-04-17T01:08:05.118Z,69.44
2017-04-17T01:08:15.210Z,69.44
2017-04-17T01:08:25.307Z,69.44
2017-04-17T01:08:35.446Z,69.44
2017-04-17T01:08:44.969Z,69.44
2017-04-17T01:08:55.062Z,69.44
2017-04-17T01:09:05.152Z,69.44
2017-04-17T01:09:15.249Z,69.44
2017-04-17T01:09:25.058Z,69.44
2017-04-17T01:09:35.149Z,69.44
2017-04-17T01:09:45.000Z,69.44
2017-04-17T01:09:55.086Z,69.44
2017-04-17T01:10:05.203Z,69.44
2017-04-17T01:10:15.002Z,69.44
2017-04-17T01:10:25.089Z,69.44
2017-04-17T01:10:35.175Z,69.44
2017-04-17T01:10:44.979Z,69.44
2017-04-17T01:10:55.214Z,69.44
2017-04-17T01:11:05.304Z,69.44
2017-04-17T01:11:15.390Z,69.44
2017-04-17T01:11:25.477Z,69.44
2017-04-17T01:11:35.568Z,69.44
2017-04-17T01:11:45.366Z,69.44
2017-04-17T01:11:55.456Z,69.44
2017-04-17T01:12:05.544Z,69.53
2017-04-17T01:12:15.637Z,69.53
2017-04-17T01:12:25.724Z,69.53
2017-04-17T01:12:35.825Z,69.53
2017-04-17T01:12:45.349Z,69.53
2017-04-17T01:12:55.441Z,69.53
2017-04-17T01:13:05.722Z,69.53
2017-04-17T01:13:15.528Z,69.53
2017-04-17T01:13:25.622Z,69.53
2017-04-17T01:13:35.719Z,69.53
2017-04-17T01:13:45.809Z,69.53
2017-04-17T01:13:55.905Z,69.53
2017-04-17T01:14:06.001Z,69.53
2017-04-17T01:14:15.830Z,69.53
2017-04-17T01:14:25.922Z,69.53
2017-04-17T01:14:36.007Z,69.53
2017-04-17T01:14:46.097Z,69.53
2017-04-17T01:14:56.192Z,69.53
2017-04-17T01:15:06.279Z,69.53
2017-04-17T01:15:16.081Z,69.53
2017-04-17T01:15:26.167Z,69.53
2017-04-17T01:15:36.256Z,69.53
2017-04-17T01:15:46.350Z,69.53
2017-04-17T01:15:56.161Z,69.53
2017-04-17T01:16:06.258Z,69.63
2017-04-17T01:16:16.053Z,69.63
2017-04-17T01:16:26.212Z,69.63
2017-04-17T01:16:36.306Z,69.63
2017-04-17T01:16:46.400Z,69.63
2017-04-17T01:16:56.202Z,69.63
2017-04-17T01:17:05.998Z,69.63
2017-04-17T01:17:15.802Z,69.63
2017-04-17T01:17:25.887Z,69.63
2017-04-17T01:17:36.025Z,69.63
2017-04-17T01:17:46.126Z,69.63
2017-04-17T01:17:56.221Z,69.72
2017-04-17T01:18:06.314Z,69.72
2017-04-17T01:18:16.130Z,69.72
2017-04-17T01:18:26.218Z,69.72
2017-04-17T01:18:36.308Z,69.72
2017-04-17T01:18:46.519Z,69.72
2017-04-17T01:18:56.604Z,69.72
2017-04-17T01:19:06.698Z,69.72
2017-04-17T01:19:16.496Z,69.72
2017-04-17T01:19:26.590Z,69.72
2017-04-17T01:19:36.680Z,69.72
2017-04-17T01:19:47.052Z,69.72
2017-04-17T01:19:57.138Z,69.72
2017-04-17T01:20:06.949Z,69.72
2017-04-17T01:20:17.035Z,69.72
2017-04-17T01:20:27.127Z,69.72
2017-04-17T01:20:37.215Z,69.72
2017-04-17T01:20:47.019Z,69.72
2017-04-17T01:20:57.160Z,69.72
2017-04-17T01:21:07.254Z,69.72
2017-04-17T01:21:17.061Z,69.72
2017-04-17T01:21:27.154Z,69.72
2017-04-17T01:21:37.249Z,69.72
2017-04-17T01:21:47.340Z,69.72
2017-04-17T01:21:57.425Z,69.72
2017-04-17T01:22:07.604Z,69.72
2017-04-17T01:22:17.690Z,69.72
2017-04-17T01:22:27.787Z,69.72
2017-04-17T01:22:37.874Z,69.72
2017-04-17T01:22:47.959Z,69.72
2017-04-17T01:22:58.053Z,69.72
2017-04-17T01:23:08.287Z,69.72
2017-04-17T01:23:18.378Z,69.72
2017-04-17T01:23:28.186Z,69.72
2017-04-17T01:23:38.281Z,69.72
2017-04-17T01:23:48.374Z,69.72
2017-04-17T01:23:58.463Z,69.72
2017-04-17T01:24:08.261Z,69.72
2017-04-17T01:24:18.099Z,69.72
2017-04-17T01:24:28.194Z,69.72
2017-04-17T01:24:38.285Z,69.72
2017-04-17T01:24:48.373Z,69.72
2017-04-17T01:24:58.463Z,69.72
2017-04-17T01:25:08.268Z,69.72
2017-04-17T01:25:17.776Z,69.72
2017-04-17T01:25:27.989Z,69.72
2017-04-17T01:25:38.087Z,69.72
2017-04-17T01:25:48.179Z,69.72
2017-04-17T01:25:58.270Z,69.72
2017-04-17T01:26:08.073Z,69.72
2017-04-17T01:26:17.877Z,69.72
2017-04-17T01:26:28.010Z,69.72
2017-04-17T01:26:38.099Z,69.72
2017-04-17T01:26:47.898Z,69.72
2017-04-17T01:26:57.982Z,69.72
2017-04-17T01:27:08.069Z,69.72
2017-04-17T01:27:17.865Z,69.72
2017-04-17T01:27:27.957Z,69.72
2017-04-17T01:27:38.141Z,69.72
2017-04-17T01:27:48.238Z,69.72
2017-04-17T01:27:58.039Z,69.72
2017-04-17T01:28:08.147Z,69.72
2017-04-17T01:28:17.951Z,69.82
2017-04-17T01:28:28.045Z,69.72
2017-04-17T01:28:37.850Z,69.82
2017-04-17T01:28:47.951Z,69.82
2017-04-17T01:28:58.042Z,69.72
2017-04-17T01:29:08.131Z,69.72
2017-04-17T01:29:17.640Z,69.82
2017-04-17T01:29:27.728Z,69.82
2017-04-17T01:29:37.536Z,69.82
2017-04-17T01:29:47.635Z,69.82
2017-04-17T01:29:57.933Z,69.82
2017-04-17T01:30:07.741Z,69.82
2017-04-17T01:30:17.541Z,69.82
2017-04-17T01:30:27.639Z,69.82
2017-04-17T01:30:37.731Z,69.82
2017-04-17T01:30:47.817Z,69.82
2017-04-17T01:30:57.620Z,69.82
2017-04-17T01:31:07.707Z,69.82
2017-04-17T01:31:17.800Z,69.82
2017-04-17T01:31:27.897Z,69.82
2017-04-17T01:31:37.999Z,69.82
2017-04-17T01:31:48.100Z,69.82
2017-04-17T01:31:57.899Z,69.82
2017-04-17T01:32:07.652Z,69.82
2017-04-17T01:32:16.879Z,69.82
2017-04-17T01:32:26.965Z,69.91
2017-04-17T01:32:37.062Z,69.82
2017-04-17T01:32:47.149Z,69.82
2017-04-17T01:32:57.236Z,69.91
2017-04-17T01:33:07.325Z,69.91
2017-04-17T01:33:17.135Z,69.91
2017-04-17T01:33:27.225Z,69.91
2017-04-17T01:33:37.358Z,69.82
2017-04-17T01:33:47.448Z,69.82
2017-04-17T01:33:57.536Z,69.82
2017-04-17T01:34:07.335Z,69.82
2017-04-17T01:34:17.435Z,69.82
2017-04-17T01:34:27.527Z,69.82
2017-04-17T01:34:37.329Z,69.82
2017-04-17T01:34:47.416Z,69.82
2017-04-17T01:34:57.507Z,69.82
2017-04-17T01:35:07.595Z,69.91
2017-04-17T01:35:17.413Z,69.82
2017-04-17T01:35:27.503Z,69.82
2017-04-17T01:35:37.302Z,69.82
2017-04-17T01:35:47.392Z,69.82
2017-04-17T01:35:57.479Z,69.82
2017-04-17T01:36:07.285Z,69.82
2017-04-17T01:36:17.370Z,69.82
2017-04-17T01:36:27.460Z,69.82
2017-04-17T01:36:37.892Z,69.82
2017-04-17T01:36:47.695Z,69.82
2017-04-17T01:36:57.503Z,69.82
2017-04-17T01:37:07.594Z,69.82
2017-04-17T01:37:17.394Z,69.82
2017-04-17T01:37:27.486Z,69.82
2017-04-17T01:37:37.293Z,69.91
2017-04-17T01:37:47.416Z,69.82
2017-04-17T01:37:57.228Z,69.91
2017-04-17T01:38:07.319Z,69.91
2017-04-17T01:38:17.409Z,69.82
2017-04-17T01:38:27.504Z,69.82
2017-04-17T01:38:37.021Z,69.82
2017-04-17T01:38:46.824Z,69.82
2017-04-17T01:38:56.814Z,69.91
2017-04-17T01:39:06.909Z,69.82
2017-04-17T01:39:17.001Z,69.91
2017-04-17T01:39:27.086Z,69.91
2017-04-17T01:39:36.890Z,69.82
2017-04-17T01:39:46.987Z,69.82
2017-04-17T01:39:57.270Z,69.91
2017-04-17T01:40:07.138Z,69.91
2017-04-17T01:40:17.245Z,69.91
2017-04-17T01:40:27.336Z,69.82
2017-04-17T01:40:37.421Z,69.91
2017-04-17T01:40:47.515Z,69.82
2017-04-17T01:40:57.599Z,69.82
2017-04-17T01:41:07.825Z,69.82
2017-04-17T01:41:17.623Z,69.82
2017-04-17T01:41:27.714Z,69.91
2017-04-17T01:41:37.804Z,69.82
2017-04-17T01:41:47.895Z,69.91
2017-04-17T01:41:57.983Z,69.91
2017-04-17T01:42:07.785Z,69.91
2017-04-17T01:42:17.885Z,69.82
2017-04-17T01:42:27.971Z,69.82
2017-04-17T01:42:38.058Z,69.91
2017-04-17T01:42:48.151Z,69.91
2017-04-17T01:42:58.240Z,69.91
2017-04-17T01:43:08.045Z,69.91
2017-04-17T01:43:18.135Z,69.91
2017-04-17T01:43:28.440Z,69.91
2017-04-17T01:43:38.589Z,69.91
2017-04-17T01:43:48.689Z,69.91
2017-04-17T01:43:58.792Z,69.91
2017-04-17T01:44:08.886Z,69.91
2017-04-17T01:44:18.986Z,69.91
2017-04-17T01:44:29.218Z,69.91
2017-04-17T01:44:39.368Z,69.91
2017-04-17T01:44:49.450Z,69.91
2017-04-17T01:44:59.253Z,69.91
2017-04-17T01:45:09.348Z,69.91
2017-04-17T01:45:19.153Z,69.91
2017-04-17T01:45:29.240Z,69.91
2017-04-17T01:45:39.333Z,69.91
2017-04-17T01:45:49.430Z,69.91
2017-04-17T01:45:59.521Z,69.91
2017-04-17T01:46:09.608Z,69.91
2017-04-17T01:46:19.701Z,69.91
2017-04-17T01:46:29.793Z,69.91
2017-04-17T01:46:39.881Z,69.91
2017-04-17T01:46:50.064Z,69.91
2017-04-17T01:47:00.156Z,69.91
2017-04-17T01:47:10.249Z,69.91
2017-04-17T01:47:20.346Z,69.91
2017-04-17T01:47:30.442Z,69.91
2017-04-17T01:47:40.531Z,69.91
2017-04-17T01:47:50.337Z,69.91
2017-04-17T01:48:00.428Z,69.91
2017-04-17T01:48:10.232Z,69.91
2017-04-17T01:48:20.321Z,69.91
2017-04-17T01:48:30.410Z,69.91
2017-04-17T01:48:40.217Z,69.91
2017-04-17T01:48:50.309Z,69.91
2017-04-17T01:49:00.561Z,69.91
2017-04-17T01:49:10.654Z,69.91
2017-04-17T01:49:20.465Z,69.91
2017-04-17T01:49:30.563Z,69.91
2017-04-17T01:49:40.652Z,69.91
2017-04-17T01:49:50.451Z,69.91
2017-04-17T01:50:00.545Z,69.91
2017-04-17T01:50:10.345Z,69.91
2017-04-17T01:50:20.145Z,69.91
2017-04-17T01:50:30.230Z,69.91
2017-04-17T01:50:40.317Z,69.91
2017-04-17T01:50:50.404Z,69.91
2017-04-17T01:51:00.197Z,69.91
2017-04-17T01:51:10.014Z,69.91
2017-04-17T01:51:20.099Z,69.91
2017-04-17T01:51:30.188Z,69.91
2017-04-17T01:51:40.277Z,69.91
2017-04-17T01:51:50.361Z,69.91
2017-04-17T01:52:00.156Z,69.91
2017-04-17T01:52:10.246Z,69.91
2017-04-17T01:52:20.339Z,69.91
2017-04-17T01:52:30.432Z,69.91
2017-04-17T01:52:39.945Z,69.91
2017-04-17T01:52:50.037Z,69.91
2017-04-17T01:53:00.131Z,69.91
2017-04-17T01:53:10.218Z,69.91
2017-04-17T01:53:20.032Z,69.91
2017-04-17T01:53:30.119Z,69.91
2017-04-17T01:53:40.216Z,69.91
2017-04-17T01:53:50.302Z,69.91
2017-04-17T01:54:00.399Z,69.91
2017-04-17T01:54:10.201Z,69.91
2017-04-17T01:54:20.000Z,69.91
2017-04-17T01:54:30.096Z,69.91
2017-04-17T01:54:40.186Z,69.91
2017-04-17T01:54:50.273Z,69.91
2017-04-17T01:55:00.366Z,69.91
2017-04-17T01:55:10.174Z,69.91
2017-04-17T01:55:19.970Z,69.91
2017-04-17T01:55:30.061Z,69.91
2017-04-17T01:55:40.146Z,70.01
2017-04-17T01:55:50.229Z,70.01
2017-04-17T01:55:59.745Z,70.01
2017-04-17T01:56:09.543Z,70.01
2017-04-17T01:56:19.636Z,69.91
2017-04-17T01:56:29.721Z,70.01
2017-04-17T01:56:39.812Z,70.01
2017-04-17T01:56:49.976Z,70.01
2017-04-17T01:57:00.063Z,70.01
2017-04-17T01:57:09.862Z,70.01
2017-04-17T01:57:19.993Z,70.01
2017-04-17T01:57:30.086Z,70.01
2017-04-17T01:57:40.170Z,70.01
2017-04-17T01:57:50.262Z,70.01
2017-04-17T01:58:00.355Z,70.01
2017-04-17T01:58:09.869Z,70.01
2017-04-17T01:58:19.680Z,70.01
2017-04-17T01:58:29.770Z,70.01
2017-04-17T01:58:39.866Z,70.01
2017-04-17T01:58:49.670Z,70.01
2017-04-17T01:58:59.471Z,70.01
2017-04-17T01:59:09.636Z,70.01
2017-04-17T01:59:19.432Z,70.01
2017-04-17T01:59:29.521Z,70.01
2017-04-17T01:59:39.603Z,70.01
2017-04-17T01:59:49.687Z,70.01
2017-04-17T01:59:59.776Z,70.01
2017-04-17T02:00:09.870Z,70.01
2017-04-17T02:00:19.989Z,70.01
2017-04-17T02:00:30.075Z,70.01
2017-04-17T02:00:40.197Z,70.01
2017-04-17T02:00:49.995Z,70.01
2017-04-17T02:00:59.797Z,70.01
2017-04-17T02:01:09.595Z,70.01
2017-04-17T02:01:19.682Z,70.01
2017-04-17T02:01:29.484Z,70.01
2017-04-17T02:01:39.574Z,70.01
2017-04-17T02:01:49.661Z,70.01
2017-04-17T02:01:59.749Z,70.01
2017-04-17T02:02:09.551Z,70.01
2017-04-17T02:02:19.667Z,70.01
2017-04-17T02:02:29.573Z,70.01
2017-04-17T02:02:39.672Z,70.01
2017-04-17T02:02:49.762Z,70.01
2017-04-17T02:02:59.276Z,70.01
2017-04-17T02:03:09.372Z,70.01
2017-04-17T02:03:19.462Z,70.01
2017-04-17T02:03:29.266Z,70.01
2017-04-17T02:03:39.362Z,70.01
2017-04-17T02:03:49.449Z,70.01
2017-04-17T02:03:59.249Z,70.01
2017-04-17T02:04:09.066Z,70.01
2017-04-17T02:04:19.156Z,70.01
2017-04-17T02:04:29.250Z,70.01
2017-04-17T02:04:39.340Z,70.01
2017-04-17T02:04:49.136Z,70.01
2017-04-17T02:04:59.226Z,70.01
2017-04-17T02:05:09.313Z,70.1
2017-04-17T02:05:19.407Z,70.1
2017-04-17T02:05:29.494Z,70.1
2017-04-17T02:05:39.581Z,70.1
2017-04-17T02:05:49.759Z,70.1
2017-04-17T02:05:59.848Z,70.1
2017-04-17T02:06:09.935Z,70.1
2017-04-17T02:06:20.022Z,70.1
2017-04-17T02:06:30.113Z,70.1
2017-04-17T02:06:40.226Z,70.1
2017-04-17T02:06:50.031Z,70.1
2017-04-17T02:07:00.124Z,70.1
2017-04-17T02:07:10.213Z,70.1
2017-04-17T02:07:20.307Z,70.1
2017-04-17T02:07:30.397Z,70.1
2017-04-17T02:07:40.213Z,70.1
2017-04-17T02:07:50.301Z,70.1
2017-04-17T02:08:00.399Z,70.1
2017-04-17T02:08:10.602Z,70.1
2017-04-17T02:08:20.697Z,70.1
2017-04-17T02:08:30.794Z,70.1
2017-04-17T02:08:40.888Z,70.1
2017-04-17T02:08:50.981Z,70.1
2017-04-17T02:09:01.064Z,70.1
2017-04-17T02:09:10.899Z,70.1
2017-04-17T02:09:20.712Z,70.1